createdAt,value
2023-02-16T00:00:33.033Z,65.64
2023-02-16T00:01:34.031Z,64.92
2023-02-16T00:02:33.056Z,65.12
2023-02-16T00:03:34.042Z,65.25
2023-02-16T00:04:32.999Z,64.92
2023-02-16T00:05:33.093Z,65.36
2023-02-16T00:06:33.986Z,64.81
2023-02-16T00:07:33.972Z,64.95
2023-02-16T00:08:33.921Z,65.05
2023-02-16T00:09:32.913Z,64.95
2023-02-16T00:10:32.973Z,64.95
2023-02-16T00:11:32.907Z,65.25
2023-02-16T00:12:32.897Z,65.77
2023-02-16T00:13:32.912Z,65.67
2023-02-16T00:14:32.874Z,65.67
2023-02-16T00:15:32.899Z,65.46
2023-02-16T00:16:33.842Z,65.80
2023-02-16T00:17:33.640Z,65.59
2023-02-16T00:18:32.824Z,66.01
2023-02-16T00:19:32.858Z,65.49
2023-02-16T00:20:32.806Z,65.59
2023-02-16T00:21:32.797Z,65.67
2023-02-16T00:22:32.796Z,65.77
2023-02-16T00:23:32.787Z,65.46
2023-02-16T00:24:33.753Z,65.36
2023-02-16T00:25:32.770Z,65.39
2023-02-16T00:26:32.783Z,65.39
2023-02-16T00:27:32.733Z,65.39
2023-02-16T00:28:32.726Z,65.39
2023-02-16T00:29:32.716Z,65.73
2023-02-16T00:30:32.780Z,65.59
2023-02-16T00:31:32.920Z,65.80
2023-02-16T00:32:32.667Z,65.21
2023-02-16T00:33:32.674Z,65.80
2023-02-16T00:34:33.692Z,65.08
2023-02-16T00:35:32.656Z,65.70
2023-02-16T00:36:32.640Z,65.80
2023-02-16T00:37:32.653Z,65.62
2023-02-16T00:38:33.617Z,65.94
2023-02-16T00:39:32.683Z,65.70
2023-02-16T00:40:33.604Z,65.49
2023-02-16T00:41:32.573Z,65.39
2023-02-16T00:42:32.594Z,65.18
2023-02-16T00:43:32.574Z,64.98
2023-02-16T00:44:32.554Z,65.21
2023-02-16T00:45:33.529Z,65.52
2023-02-16T00:46:32.636Z,65.83
2023-02-16T00:47:33.556Z,65.83
2023-02-16T00:48:32.524Z,65.73
2023-02-16T00:49:32.502Z,65.73
2023-02-16T00:50:32.524Z,65.31
2023-02-16T00:51:32.535Z,65.52
2023-02-16T00:52:32.481Z,65.00
2023-02-16T00:53:32.473Z,65.11
2023-02-16T00:54:32.471Z,65.11
2023-02-16T00:55:32.477Z,65.00
2023-02-16T00:56:32.456Z,65.52
2023-02-16T00:57:32.401Z,64.98
2023-02-16T00:58:32.436Z,65.52
2023-02-16T00:59:32.427Z,65.00
2023-02-16T01:00:32.417Z,65.11
2023-02-16T01:01:32.438Z,65.42
2023-02-16T01:02:32.394Z,65.42
2023-02-16T01:03:33.348Z,65.11
2023-02-16T01:04:32.458Z,65.42
2023-02-16T01:05:32.343Z,65.31
2023-02-16T01:06:32.360Z,65.52
2023-02-16T01:07:32.315Z,65.62
2023-02-16T01:08:32.297Z,65.73
2023-02-16T01:09:32.272Z,65.73
2023-02-16T01:10:32.289Z,65.83
2023-02-16T01:11:32.314Z,65.73
2023-02-16T01:12:32.246Z,65.31
2023-02-16T01:13:32.271Z,65.86
2023-02-16T01:14:32.233Z,65.94
2023-02-16T01:15:32.240Z,66.07
2023-02-16T01:16:32.231Z,65.83
2023-02-16T01:17:32.196Z,66.07
2023-02-16T01:18:32.201Z,65.83
2023-02-16T01:19:32.200Z,65.66
2023-02-16T01:20:32.203Z,65.55
2023-02-16T01:21:32.198Z,65.62
2023-02-16T01:22:33.140Z,65.83
2023-02-16T01:23:32.217Z,65.03
2023-02-16T01:24:32.130Z,65.83
2023-02-16T01:25:32.152Z,65.97
2023-02-16T01:26:32.086Z,65.31
2023-02-16T01:27:32.100Z,65.66
2023-02-16T01:28:33.080Z,65.66
2023-02-16T01:29:32.076Z,66.27
2023-02-16T01:30:32.184Z,65.83
2023-02-16T01:31:33.139Z,65.97
2023-02-16T01:32:32.033Z,65.73
2023-02-16T01:33:32.044Z,66.07
2023-02-16T01:34:32.032Z,65.34
2023-02-16T01:35:33.012Z,65.55
2023-02-16T01:36:31.991Z,65.55
2023-02-16T01:37:32.997Z,66.48
2023-02-16T01:38:32.576Z,66.07
2023-02-16T01:39:31.972Z,66.61
2023-02-16T01:40:31.948Z,66.30
2023-02-16T01:41:31.999Z,66.20
2023-02-16T01:42:31.913Z,66.00
2023-02-16T01:43:31.915Z,66.51
2023-02-16T01:44:31.899Z,66.51
2023-02-16T01:45:31.897Z,66.20
2023-02-16T01:46:31.938Z,66.10
2023-02-16T01:47:31.906Z,66.17
2023-02-16T01:48:31.845Z,66.48
2023-02-16T01:49:31.884Z,65.76
2023-02-16T01:50:32.572Z,66.20
2023-02-16T01:51:31.846Z,66.27
2023-02-16T01:52:31.856Z,66.48
2023-02-16T01:53:31.838Z,66.27
2023-02-16T01:54:31.820Z,66.48
2023-02-16T01:55:31.856Z,66.17
2023-02-16T01:56:31.855Z,66.07
2023-02-16T01:57:32.776Z,66.07
2023-02-16T01:58:32.754Z,66.17
2023-02-16T01:59:31.758Z,66.69
2023-02-16T02:00:32.719Z,66.17
2023-02-16T02:01:31.740Z,66.07
2023-02-16T02:02:31.766Z,66.58
2023-02-16T02:03:31.687Z,66.17
2023-02-16T02:04:31.713Z,66.07
2023-02-16T02:05:32.722Z,66.27
2023-02-16T02:06:31.655Z,66.17
2023-02-16T02:07:31.664Z,66.58
2023-02-16T02:08:31.633Z,66.07
2023-02-16T02:09:31.660Z,66.48
2023-02-16T02:10:31.634Z,65.97
2023-02-16T02:11:32.648Z,66.38
2023-02-16T02:12:31.603Z,66.27
2023-02-16T02:13:31.595Z,66.48
2023-02-16T02:14:31.571Z,66.48
2023-02-16T02:15:31.572Z,66.07
2023-02-16T02:16:31.696Z,66.38
2023-02-16T02:17:31.578Z,66.07
2023-02-16T02:18:32.539Z,66.27
2023-02-16T02:19:32.542Z,66.48
2023-02-16T02:20:31.521Z,66.58
2023-02-16T02:21:31.492Z,66.48
2023-02-16T02:22:31.517Z,66.48
2023-02-16T02:23:31.519Z,66.51
2023-02-16T02:24:31.500Z,66.51
2023-02-16T02:25:31.468Z,66.30
2023-02-16T02:26:31.440Z,66.61
2023-02-16T02:27:31.519Z,67.13
2023-02-16T02:28:31.432Z,67.24
2023-02-16T02:29:31.464Z,67.34
2023-02-16T02:30:31.477Z,66.51
2023-02-16T02:31:31.506Z,66.51
2023-02-16T02:32:32.405Z,67.24
2023-02-16T02:33:32.384Z,66.93
2023-02-16T02:34:32.354Z,67.13
2023-02-16T02:35:31.401Z,66.51
2023-02-16T02:36:31.362Z,66.61
2023-02-16T02:37:31.318Z,66.41
2023-02-16T02:38:32.325Z,66.30
2023-02-16T02:39:32.310Z,67.03
2023-02-16T02:40:32.316Z,66.61
2023-02-16T02:41:31.314Z,66.51
2023-02-16T02:42:31.267Z,66.93
2023-02-16T02:43:32.362Z,66.96
2023-02-16T02:44:31.266Z,66.93
2023-02-16T02:45:31.276Z,66.30
2023-02-16T02:46:32.261Z,67.16
2023-02-16T02:47:31.242Z,66.72
2023-02-16T02:48:32.219Z,66.41
2023-02-16T02:49:31.188Z,66.41
2023-02-16T02:50:31.175Z,67.34
2023-02-16T02:51:31.208Z,66.72
2023-02-16T02:52:31.180Z,67.03
2023-02-16T02:53:31.179Z,66.51
2023-02-16T02:54:31.620Z,66.33
2023-02-16T02:55:31.158Z,66.72
2023-02-16T02:56:31.139Z,67.06
2023-02-16T02:57:32.137Z,66.96
2023-02-16T02:58:31.109Z,67.24
2023-02-16T02:59:31.118Z,66.30
2023-02-16T03:00:31.126Z,66.41
2023-02-16T03:01:31.090Z,66.10
2023-02-16T03:02:31.062Z,66.51
2023-02-16T03:03:32.090Z,66.03
2023-02-16T03:04:31.064Z,66.33
2023-02-16T03:05:31.057Z,66.30
2023-02-16T03:06:31.018Z,66.93
2023-02-16T03:07:31.065Z,66.44
2023-02-16T03:08:31.990Z,66.44
2023-02-16T03:09:30.997Z,66.93
2023-02-16T03:10:30.985Z,67.34
2023-02-16T03:11:32.028Z,67.34
2023-02-16T03:12:31.954Z,66.30
2023-02-16T03:13:31.946Z,66.30
2023-02-16T03:14:30.925Z,66.23
2023-02-16T03:15:30.946Z,66.03
2023-02-16T03:16:30.986Z,66.54
2023-02-16T03:17:30.986Z,66.33
2023-02-16T03:18:30.895Z,67.13
2023-02-16T03:19:30.910Z,67.27
2023-02-16T03:20:30.865Z,66.30
2023-02-16T03:21:30.863Z,66.23
2023-02-16T03:22:30.865Z,66.20
2023-02-16T03:23:30.880Z,66.85
2023-02-16T03:24:30.826Z,66.23
2023-02-16T03:25:30.821Z,66.75
2023-02-16T03:26:30.802Z,66.33
2023-02-16T03:27:30.927Z,66.72
2023-02-16T03:28:30.795Z,66.20
2023-02-16T03:29:31.758Z,66.64
2023-02-16T03:30:30.892Z,66.44
2023-02-16T03:31:31.977Z,66.96
2023-02-16T03:32:30.737Z,67.19
2023-02-16T03:33:30.732Z,67.30
2023-02-16T03:34:30.763Z,67.09
2023-02-16T03:35:30.688Z,66.88
2023-02-16T03:36:30.693Z,67.40
2023-02-16T03:37:30.702Z,67.19
2023-02-16T03:38:30.687Z,66.88
2023-02-16T03:39:30.682Z,67.27
2023-02-16T03:40:31.671Z,67.06
2023-02-16T03:41:30.631Z,66.44
2023-02-16T03:42:30.623Z,67.50
2023-02-16T03:43:30.607Z,66.44
2023-02-16T03:44:31.624Z,66.85
2023-02-16T03:45:30.678Z,67.27
2023-02-16T03:46:30.627Z,66.64
2023-02-16T03:47:30.630Z,67.19
2023-02-16T03:48:30.573Z,66.36
2023-02-16T03:49:30.539Z,67.09
2023-02-16T03:50:30.581Z,66.78
2023-02-16T03:51:30.533Z,66.78
2023-02-16T03:52:30.573Z,66.99
2023-02-16T03:53:30.506Z,67.61
2023-02-16T03:54:30.486Z,67.50
2023-02-16T03:55:31.514Z,67.40
2023-02-16T03:56:30.492Z,67.09
2023-02-16T03:57:30.486Z,68.02
2023-02-16T03:58:30.487Z,66.54
2023-02-16T03:59:30.446Z,66.57
2023-02-16T04:00:30.421Z,68.02
2023-02-16T04:01:31.448Z,66.57
2023-02-16T04:02:30.528Z,67.40
2023-02-16T04:03:30.413Z,67.30
2023-02-16T04:04:30.463Z,67.61
2023-02-16T04:05:31.408Z,67.09
2023-02-16T04:06:30.390Z,67.09
2023-02-16T04:07:31.849Z,66.44
2023-02-16T04:08:30.380Z,67.37
2023-02-16T04:09:30.346Z,66.57
2023-02-16T04:10:30.328Z,67.19
2023-02-16T04:11:30.342Z,67.40
2023-02-16T04:12:30.318Z,66.88
2023-02-16T04:13:30.292Z,67.09
2023-02-16T04:14:30.312Z,67.19
2023-02-16T04:15:30.312Z,67.09
2023-02-16T04:16:30.346Z,66.67
2023-02-16T04:17:31.290Z,67.61
2023-02-16T04:18:30.271Z,68.02
2023-02-16T04:19:30.255Z,67.82
2023-02-16T04:20:30.235Z,68.12
2023-02-16T04:21:30.229Z,67.50
2023-02-16T04:22:30.196Z,68.12
2023-02-16T04:23:31.220Z,67.82
2023-02-16T04:24:30.201Z,67.91
2023-02-16T04:25:30.183Z,67.09
2023-02-16T04:26:30.163Z,67.71
2023-02-16T04:27:30.191Z,67.30
2023-02-16T04:28:30.134Z,67.40
2023-02-16T04:29:31.145Z,67.50
2023-02-16T04:30:30.214Z,67.50
2023-02-16T04:31:31.307Z,68.02
2023-02-16T04:32:31.129Z,67.71
2023-02-16T04:33:30.102Z,67.91
2023-02-16T04:34:30.054Z,68.02
2023-02-16T04:35:31.129Z,68.15
2023-02-16T04:36:30.064Z,68.23
2023-02-16T04:37:30.089Z,67.61
2023-02-16T04:38:30.041Z,67.91
2023-02-16T04:39:30.015Z,68.02
2023-02-16T04:40:29.990Z,67.61
2023-02-16T04:41:29.994Z,67.82
2023-02-16T04:42:29.979Z,68.02
2023-02-16T04:43:30.029Z,67.82
2023-02-16T04:44:29.977Z,68.12
2023-02-16T04:45:29.962Z,67.50
2023-02-16T04:46:30.021Z,67.71
2023-02-16T04:47:29.942Z,67.82
2023-02-16T04:48:29.917Z,67.82
2023-02-16T04:49:30.938Z,67.71
2023-02-16T04:50:29.890Z,67.61
2023-02-16T04:51:29.887Z,67.40
2023-02-16T04:52:29.863Z,68.02
2023-02-16T04:53:29.860Z,67.91
2023-02-16T04:54:30.861Z,68.23
2023-02-16T04:55:29.868Z,68.02
2023-02-16T04:56:30.866Z,67.91
2023-02-16T04:57:29.820Z,68.02
2023-02-16T04:58:29.793Z,67.82
2023-02-16T04:59:29.808Z,67.71
2023-02-16T05:00:29.786Z,67.61
2023-02-16T05:01:29.838Z,67.61
2023-02-16T05:02:30.496Z,67.61
2023-02-16T05:03:29.775Z,68.02
2023-02-16T05:04:29.807Z,68.02
2023-02-16T05:05:29.743Z,67.82
2023-02-16T05:06:29.723Z,68.36
2023-02-16T05:07:30.731Z,68.36
2023-02-16T05:08:29.684Z,68.36
2023-02-16T05:09:29.686Z,68.36
2023-02-16T05:10:30.711Z,68.67
2023-02-16T05:11:29.659Z,68.77
2023-02-16T05:12:29.669Z,68.15
2023-02-16T05:13:29.646Z,68.43
2023-02-16T05:14:29.628Z,68.54
2023-02-16T05:15:30.658Z,68.43
2023-02-16T05:16:29.606Z,68.02
2023-02-16T05:17:29.602Z,68.12
2023-02-16T05:18:29.593Z,68.43
2023-02-16T05:19:29.578Z,67.50
2023-02-16T05:20:30.580Z,67.95
2023-02-16T05:21:30.546Z,67.82
2023-02-16T05:22:29.559Z,67.61
2023-02-16T05:23:29.553Z,67.91
2023-02-16T05:24:29.523Z,67.85
2023-02-16T05:25:29.528Z,67.71
2023-02-16T05:26:29.504Z,67.71
2023-02-16T05:27:29.477Z,67.82
2023-02-16T05:28:30.532Z,67.74
2023-02-16T05:29:29.455Z,67.95
2023-02-16T05:30:29.553Z,68.57
2023-02-16T05:31:29.569Z,68.46
2023-02-16T05:32:29.522Z,68.57
2023-02-16T05:33:29.410Z,68.98
2023-02-16T05:34:29.944Z,68.46
2023-02-16T05:35:30.424Z,68.77
2023-02-16T05:36:29.421Z,68.67
2023-02-16T05:37:29.412Z,68.88
2023-02-16T05:38:29.360Z,68.95
2023-02-16T05:39:29.382Z,68.26
2023-02-16T05:40:29.346Z,68.43
2023-02-16T05:41:29.343Z,68.33
2023-02-16T05:42:29.360Z,68.02
2023-02-16T05:43:29.340Z,68.54
2023-02-16T05:44:29.306Z,68.43
2023-02-16T05:45:29.289Z,68.23
2023-02-16T05:46:29.365Z,68.77
2023-02-16T05:47:30.274Z,68.85
2023-02-16T05:48:30.307Z,68.64
2023-02-16T05:49:30.251Z,68.43
2023-02-16T05:50:29.232Z,68.33
2023-02-16T05:51:29.282Z,68.33
2023-02-16T05:52:29.236Z,68.54
2023-02-16T05:53:29.261Z,68.54
2023-02-16T05:54:29.215Z,68.33
2023-02-16T05:55:29.227Z,68.33
2023-02-16T05:56:29.181Z,68.43
2023-02-16T05:57:29.178Z,68.02
2023-02-16T05:58:29.167Z,68.43
2023-02-16T05:59:30.161Z,68.33
2023-02-16T06:00:29.158Z,68.36
2023-02-16T06:01:30.134Z,68.02
2023-02-16T06:02:29.174Z,68.36
2023-02-16T06:03:30.142Z,68.43
2023-02-16T06:04:29.145Z,68.23
2023-02-16T06:05:30.097Z,68.43
2023-02-16T06:06:30.100Z,68.36
2023-02-16T06:07:29.114Z,68.33
2023-02-16T06:08:29.058Z,68.23
2023-02-16T06:09:29.058Z,68.23
2023-02-16T06:10:29.072Z,68.36
2023-02-16T06:11:29.054Z,68.67
2023-02-16T06:12:29.048Z,68.26
2023-02-16T06:13:29.998Z,68.26
2023-02-16T06:14:29.029Z,68.67
2023-02-16T06:15:29.004Z,68.88
2023-02-16T06:16:29.121Z,68.98
2023-02-16T06:17:29.111Z,68.98
2023-02-16T06:18:28.957Z,68.57
2023-02-16T06:19:30.011Z,68.77
2023-02-16T06:20:29.908Z,69.09
2023-02-16T06:21:28.932Z,68.88
2023-02-16T06:22:30.024Z,68.67
2023-02-16T06:23:28.890Z,69.16
2023-02-16T06:24:29.564Z,68.74
2023-02-16T06:25:28.874Z,68.64
2023-02-16T06:26:28.871Z,68.12
2023-02-16T06:27:29.895Z,68.54
2023-02-16T06:28:28.888Z,68.67
2023-02-16T06:29:28.827Z,68.64
2023-02-16T06:30:28.931Z,68.43
2023-02-16T06:31:28.919Z,68.43
2023-02-16T06:32:29.910Z,68.67
2023-02-16T06:33:28.820Z,68.36
2023-02-16T06:34:28.876Z,68.67
2023-02-16T06:35:28.765Z,68.77
2023-02-16T06:36:28.772Z,68.88
2023-02-16T06:37:28.743Z,69.12
2023-02-16T06:38:28.715Z,69.29
2023-02-16T06:39:28.708Z,69.29
2023-02-16T06:40:28.700Z,69.19
2023-02-16T06:41:28.704Z,69.19
2023-02-16T06:42:28.709Z,68.88
2023-02-16T06:43:30.829Z,69.29
2023-02-16T06:44:28.694Z,69.19
2023-02-16T06:45:29.653Z,69.29
2023-02-16T06:46:28.710Z,69.16
2023-02-16T06:47:28.671Z,68.95
2023-02-16T06:48:28.641Z,68.85
2023-02-16T06:49:28.600Z,69.06
2023-02-16T06:50:28.600Z,69.16
2023-02-16T06:51:29.607Z,69.16
2023-02-16T06:52:28.594Z,69.16
2023-02-16T06:53:28.599Z,68.85
2023-02-16T06:54:28.579Z,68.95
2023-02-16T06:55:28.539Z,68.85
2023-02-16T06:56:28.545Z,68.23
2023-02-16T06:57:28.521Z,68.95
2023-02-16T06:58:29.537Z,68.82
2023-02-16T06:59:28.546Z,68.02
2023-02-16T07:00:29.628Z,68.54
2023-02-16T07:01:28.474Z,68.09
2023-02-16T07:02:29.469Z,69.02
2023-02-16T07:03:28.518Z,68.51
2023-02-16T07:04:28.466Z,68.43
2023-02-16T07:05:28.464Z,68.40
2023-02-16T07:06:28.456Z,68.85
2023-02-16T07:07:29.500Z,68.74
2023-02-16T07:08:28.407Z,69.16
2023-02-16T07:09:29.422Z,69.16
2023-02-16T07:10:37.388Z,69.37
2023-02-16T07:11:29.376Z,69.47
2023-02-16T07:12:28.408Z,69.78
2023-02-16T07:13:28.438Z,69.47
2023-02-16T07:14:28.332Z,69.06
2023-02-16T07:15:28.324Z,69.02
2023-02-16T07:16:28.375Z,69.33
2023-02-16T07:17:28.344Z,68.71
2023-02-16T07:18:28.341Z,68.92
2023-02-16T07:19:29.263Z,69.23
2023-02-16T07:20:28.328Z,69.02
2023-02-16T07:21:28.250Z,68.92
2023-02-16T07:22:28.269Z,68.71
2023-02-16T07:23:29.229Z,68.61
2023-02-16T07:24:28.289Z,68.58
2023-02-16T07:25:28.238Z,68.27
2023-02-16T07:26:28.263Z,68.37
2023-02-16T07:27:28.191Z,68.09
2023-02-16T07:28:28.185Z,68.30
2023-02-16T07:29:28.158Z,68.78
2023-02-16T07:30:28.305Z,68.37
2023-02-16T07:31:28.328Z,68.58
2023-02-16T07:32:28.190Z,68.27
2023-02-16T07:33:28.147Z,68.27
2023-02-16T07:34:29.121Z,67.54
2023-02-16T07:35:28.096Z,67.54
2023-02-16T07:36:29.169Z,68.06
2023-02-16T07:37:28.100Z,67.96
2023-02-16T07:38:29.084Z,68.16
2023-02-16T07:39:28.093Z,68.06
2023-02-16T07:40:28.120Z,67.54
2023-02-16T07:41:28.036Z,68.27
2023-02-16T07:42:28.024Z,68.37
2023-02-16T07:43:29.047Z,68.16
2023-02-16T07:44:28.023Z,68.27
2023-02-16T07:45:28.154Z,68.16
2023-02-16T07:46:29.587Z,68.16
2023-02-16T07:47:28.160Z,68.27
2023-02-16T07:48:28.048Z,67.54
2023-02-16T07:49:28.967Z,67.54
2023-02-16T07:50:27.957Z,67.85
2023-02-16T07:51:27.941Z,68.44
2023-02-16T07:52:27.932Z,67.72
2023-02-16T07:53:27.891Z,67.61
2023-02-16T07:54:28.959Z,67.93
2023-02-16T07:55:27.904Z,67.61
2023-02-16T07:56:27.871Z,68.03
2023-02-16T07:57:27.897Z,67.72
2023-02-16T07:58:35.486Z,67.10
2023-02-16T07:59:27.835Z,68.03
2023-02-16T08:00:27.884Z,67.61
2023-02-16T08:01:28.804Z,67.51
2023-02-16T08:02:28.926Z,67.51
2023-02-16T08:03:28.022Z,67.72
2023-02-16T08:04:27.777Z,67.61
2023-02-16T08:05:27.816Z,68.24
2023-02-16T08:06:27.764Z,67.82
2023-02-16T08:07:27.748Z,67.69
2023-02-16T08:08:27.746Z,67.93
2023-02-16T08:09:28.762Z,68.03
2023-02-16T08:10:27.779Z,68.21
2023-02-16T08:11:27.707Z,67.90
2023-02-16T08:12:28.734Z,67.90
2023-02-16T08:13:27.725Z,67.48
2023-02-16T08:14:27.737Z,66.86
2023-02-16T08:15:28.649Z,66.55
2023-02-16T08:16:27.722Z,67.58
2023-02-16T08:17:27.645Z,67.24
2023-02-16T08:18:27.710Z,67.35
2023-02-16T08:19:27.693Z,66.83
2023-02-16T08:20:43.259Z,66.83
2023-02-16T08:21:28.681Z,66.94
2023-02-16T08:22:27.710Z,66.49
2023-02-16T08:23:27.608Z,66.08
2023-02-16T08:24:27.584Z,66.28
2023-02-16T08:25:27.711Z,66.08
2023-02-16T08:26:27.607Z,65.98
2023-02-16T08:27:28.589Z,65.84
2023-02-16T08:28:27.530Z,65.84
2023-02-16T08:29:27.642Z,65.33
2023-02-16T08:30:27.527Z,65.33
2023-02-16T08:31:27.598Z,65.95
2023-02-16T08:32:28.514Z,66.02
2023-02-16T08:33:27.938Z,65.40
2023-02-16T08:34:28.466Z,64.99
2023-02-16T08:35:27.512Z,65.64
2023-02-16T08:36:27.469Z,65.61
2023-02-16T08:37:27.459Z,65.50
2023-02-16T08:38:27.467Z,65.61
2023-02-16T08:39:27.425Z,65.61
2023-02-16T08:40:28.407Z,65.68
2023-02-16T08:41:28.433Z,65.16
2023-02-16T08:42:27.389Z,64.96
2023-02-16T08:43:27.515Z,65.16
2023-02-16T08:44:27.492Z,65.37
2023-02-16T08:45:27.365Z,64.75
2023-02-16T08:46:27.359Z,64.93
2023-02-16T08:47:27.377Z,64.75
2023-02-16T08:48:27.348Z,64.96
2023-02-16T08:49:27.345Z,64.75
2023-02-16T08:50:27.326Z,64.62
2023-02-16T08:51:27.312Z,64.51
2023-02-16T08:52:27.286Z,64.18
2023-02-16T08:53:28.314Z,63.18
2023-02-16T08:54:27.255Z,64.07
2023-02-16T08:55:27.238Z,63.97
2023-02-16T08:56:27.225Z,63.67
2023-02-16T08:57:28.300Z,63.25
2023-02-16T08:58:27.206Z,63.35
2023-02-16T08:59:28.747Z,63.76
2023-02-16T09:00:27.195Z,63.32
2023-02-16T09:01:27.193Z,63.32
2023-02-16T09:02:28.170Z,63.53
2023-02-16T09:03:27.181Z,63.50
2023-02-16T09:04:27.181Z,63.22
2023-02-16T09:05:27.182Z,63.50
2023-02-16T09:06:27.125Z,63.22
2023-02-16T09:07:27.122Z,63.12
2023-02-16T09:08:27.126Z,63.53
2023-02-16T09:09:27.171Z,63.09
2023-02-16T09:10:27.071Z,63.40
2023-02-16T09:11:27.095Z,63.06
2023-02-16T09:12:27.086Z,62.85
2023-02-16T09:13:28.167Z,62.24
2023-02-16T09:14:27.054Z,62.34
2023-02-16T09:15:27.032Z,62.34
2023-02-16T09:16:27.089Z,62.21
2023-02-16T09:17:27.991Z,62.52
2023-02-16T09:18:27.005Z,62.31
2023-02-16T09:19:27.991Z,61.90
2023-02-16T09:20:26.977Z,61.49
2023-02-16T09:21:26.999Z,61.77
2023-02-16T09:22:26.952Z,61.87
2023-02-16T09:23:26.944Z,61.98
2023-02-16T09:24:26.916Z,61.77
2023-02-16T09:25:26.909Z,61.05
2023-02-16T09:26:26.953Z,60.82
2023-02-16T09:27:26.943Z,60.82
2023-02-16T09:28:27.863Z,60.82
2023-02-16T09:29:26.845Z,61.05
2023-02-16T09:30:26.998Z,61.67
2023-02-16T09:31:26.975Z,61.57
2023-02-16T09:32:26.813Z,61.13
2023-02-16T09:33:26.849Z,61.02
2023-02-16T09:34:27.768Z,61.00
2023-02-16T09:35:27.820Z,61.30
2023-02-16T09:36:26.781Z,60.38
2023-02-16T09:37:27.779Z,60.49
2023-02-16T09:38:27.788Z,60.49
2023-02-16T09:39:26.769Z,60.49
2023-02-16T09:40:26.802Z,60.35
2023-02-16T09:41:26.719Z,60.35
2023-02-16T09:42:26.729Z,59.84
2023-02-16T09:43:26.692Z,59.74
2023-02-16T09:44:26.710Z,59.64
2023-02-16T09:45:26.705Z,59.84
2023-02-16T09:46:26.694Z,59.64
2023-02-16T09:47:27.675Z,59.61
2023-02-16T09:48:26.681Z,59.64
2023-02-16T09:49:26.659Z,59.81
2023-02-16T09:50:52.597Z,60.02
2023-02-16T09:51:34.278Z,59.84
2023-02-16T09:52:27.614Z,59.92
2023-02-16T09:53:26.635Z,59.71
2023-02-16T09:54:27.568Z,60.12
2023-02-16T09:55:26.632Z,59.17
2023-02-16T09:56:27.629Z,59.07
2023-02-16T09:57:26.564Z,59.38
2023-02-16T09:58:26.532Z,59.35
2023-02-16T09:59:26.568Z,59.25
2023-02-16T10:00:26.552Z,59.14
2023-02-16T10:01:27.567Z,58.70
2023-02-16T10:02:26.570Z,58.43
2023-02-16T10:03:26.542Z,59.25
2023-02-16T10:04:27.491Z,58.63
2023-02-16T10:05:26.474Z,58.53
2023-02-16T10:06:27.488Z,58.94
2023-02-16T10:07:26.433Z,59.45
2023-02-16T10:08:27.446Z,58.70
2023-02-16T10:09:26.435Z,58.91
2023-02-16T10:10:26.411Z,58.53
2023-02-16T10:11:27.452Z,59.25
2023-02-16T10:12:26.410Z,59.14
2023-02-16T10:13:26.406Z,58.43
2023-02-16T10:14:26.394Z,59.25
2023-02-16T10:15:27.370Z,59.25
2023-02-16T10:16:27.345Z,59.25
2023-02-16T10:17:26.394Z,58.84
2023-02-16T10:18:26.337Z,59.45
2023-02-16T10:19:26.380Z,59.04
2023-02-16T10:20:26.294Z,58.81
2023-02-16T10:21:27.291Z,58.70
2023-02-16T10:22:26.334Z,58.68
2023-02-16T10:23:26.308Z,58.29
2023-02-16T10:24:26.285Z,58.61
2023-02-16T10:25:26.278Z,58.89
2023-02-16T10:26:26.269Z,58.58
2023-02-16T10:27:26.268Z,58.27
2023-02-16T10:28:26.326Z,58.27
2023-02-16T10:29:26.219Z,58.17
2023-02-16T10:30:26.236Z,57.97
2023-02-16T10:31:26.300Z,58.45
2023-02-16T10:32:26.167Z,58.04
2023-02-16T10:33:27.230Z,58.34
2023-02-16T10:34:26.257Z,58.55
2023-02-16T10:35:26.138Z,58.25
2023-02-16T10:36:26.147Z,58.14
2023-02-16T10:37:26.132Z,58.34
2023-02-16T10:38:26.183Z,58.55
2023-02-16T10:39:26.092Z,58.45
2023-02-16T10:40:27.118Z,58.11
2023-02-16T10:41:26.089Z,57.50
2023-02-16T10:42:26.191Z,57.60
2023-02-16T10:43:26.112Z,58.04
2023-02-16T10:44:26.080Z,58.14
2023-02-16T10:45:27.340Z,58.62
2023-02-16T10:46:27.065Z,57.81
2023-02-16T10:47:26.033Z,58.11
2023-02-16T10:48:27.090Z,57.40
2023-02-16T10:49:26.010Z,57.20
2023-02-16T10:50:25.970Z,56.68
2023-02-16T10:51:26.005Z,57.40
2023-02-16T10:52:26.000Z,57.37
2023-02-16T10:53:25.971Z,56.99
2023-02-16T10:54:26.923Z,57.78
2023-02-16T10:55:25.968Z,57.60
2023-02-16T10:56:25.914Z,57.60
2023-02-16T10:57:25.959Z,58.09
2023-02-16T10:58:26.925Z,57.68
2023-02-16T10:59:25.932Z,57.68
2023-02-16T11:00:25.916Z,57.96
2023-02-16T11:01:25.873Z,56.86
2023-02-16T11:02:25.862Z,57.29
2023-02-16T11:03:25.966Z,58.11
2023-02-16T11:04:25.854Z,58.42
2023-02-16T11:05:26.801Z,57.81
2023-02-16T11:06:25.839Z,57.91
2023-02-16T11:07:25.820Z,57.81
2023-02-16T11:08:25.865Z,58.11
2023-02-16T11:09:26.783Z,58.01
2023-02-16T11:10:26.753Z,57.91
2023-02-16T11:11:26.740Z,58.11
2023-02-16T11:12:26.910Z,58.09
2023-02-16T11:13:25.731Z,57.57
2023-02-16T11:14:26.726Z,57.17
2023-02-16T11:15:25.832Z,57.48
2023-02-16T11:16:25.710Z,57.68
2023-02-16T11:17:25.745Z,57.88
2023-02-16T11:18:25.722Z,57.68
2023-02-16T11:19:25.685Z,57.98
2023-02-16T11:20:25.710Z,57.68
2023-02-16T11:21:26.665Z,58.32
2023-02-16T11:22:25.716Z,58.83
2023-02-16T11:23:25.628Z,58.62
2023-02-16T11:24:25.630Z,58.70
2023-02-16T11:25:25.770Z,58.50
2023-02-16T11:26:26.637Z,57.96
2023-02-16T11:27:25.597Z,57.78
2023-02-16T11:28:26.561Z,57.17
2023-02-16T11:29:25.559Z,57.14
2023-02-16T11:30:25.635Z,57.37
2023-02-16T11:31:26.882Z,57.55
2023-02-16T11:32:25.516Z,57.73
2023-02-16T11:33:25.531Z,56.91
2023-02-16T11:34:26.518Z,57.12
2023-02-16T11:35:25.561Z,56.91
2023-02-16T11:36:26.481Z,56.91
2023-02-16T11:37:25.493Z,57.32
2023-02-16T11:38:25.455Z,56.81
2023-02-16T11:39:25.480Z,56.71
2023-02-16T11:40:25.481Z,57.01
2023-02-16T11:41:25.474Z,57.29
2023-02-16T11:42:25.470Z,56.71
2023-02-16T11:43:26.407Z,57.32
2023-02-16T11:44:25.400Z,56.78
2023-02-16T11:45:26.273Z,56.68
2023-02-16T11:46:25.477Z,57.06
2023-02-16T11:47:26.385Z,56.17
2023-02-16T11:48:25.340Z,56.91
2023-02-16T11:49:26.376Z,56.91
2023-02-16T11:50:25.314Z,56.27
2023-02-16T11:51:27.275Z,56.27
2023-02-16T11:52:25.344Z,56.37
2023-02-16T11:53:25.283Z,57.09
2023-02-16T11:54:25.358Z,56.58
2023-02-16T11:55:25.295Z,56.17
2023-02-16T11:56:25.256Z,56.45
2023-02-16T11:57:26.334Z,55.84
2023-02-16T11:58:25.298Z,56.15
2023-02-16T11:59:25.229Z,55.74
2023-02-16T12:00:26.220Z,55.33
2023-02-16T12:01:25.226Z,55.33
2023-02-16T12:02:26.224Z,55.43
2023-02-16T12:03:25.220Z,56.37
2023-02-16T12:04:25.170Z,56.17
2023-02-16T12:05:25.163Z,55.97
2023-02-16T12:06:25.154Z,55.74
2023-02-16T12:07:25.162Z,55.33
2023-02-16T12:08:26.177Z,55.22
2023-02-16T12:09:25.092Z,55.13
2023-02-16T12:10:25.138Z,55.63
2023-02-16T12:11:25.090Z,55.81
2023-02-16T12:12:25.100Z,55.10
2023-02-16T12:13:26.098Z,55.30
2023-02-16T12:14:25.079Z,55.10
2023-02-16T12:15:25.063Z,55.13
2023-02-16T12:16:25.105Z,55.22
2023-02-16T12:17:25.009Z,55.53
2023-02-16T12:18:25.014Z,55.30
2023-02-16T12:19:25.045Z,55.61
2023-02-16T12:20:25.760Z,55.10
2023-02-16T12:21:24.999Z,55.38
2023-02-16T12:22:25.022Z,55.30
2023-02-16T12:23:24.947Z,55.30
2023-02-16T12:24:25.963Z,56.12
2023-02-16T12:25:25.968Z,55.48
2023-02-16T12:26:25.934Z,55.07
2023-02-16T12:27:24.918Z,55.91
2023-02-16T12:28:24.901Z,56.12
2023-02-16T12:29:24.893Z,55.20
2023-02-16T12:30:24.924Z,54.97
2023-02-16T12:31:24.959Z,56.12
2023-02-16T12:32:24.903Z,54.90
2023-02-16T12:33:24.882Z,55.07
2023-02-16T12:34:24.818Z,55.48
2023-02-16T12:35:24.842Z,55.28
2023-02-16T12:36:24.826Z,55.48
2023-02-16T12:37:24.804Z,55.28
2023-02-16T12:38:24.807Z,55.58
2023-02-16T12:39:24.786Z,54.74
2023-02-16T12:40:24.863Z,55.35
2023-02-16T12:41:24.783Z,54.85
2023-02-16T12:42:24.770Z,55.05
2023-02-16T12:43:24.840Z,55.55
2023-02-16T12:44:24.764Z,54.94
2023-02-16T12:45:24.848Z,55.63
2023-02-16T12:46:24.744Z,55.35
2023-02-16T12:47:24.697Z,54.92
2023-02-16T12:48:24.672Z,54.94
2023-02-16T12:49:24.694Z,55.02
2023-02-16T12:50:25.650Z,55.22
2023-02-16T12:51:25.701Z,54.92
2023-02-16T12:52:24.737Z,55.15